LPR6 EPKX-EPKX
Flight info
| Callsign | LPR6 |
|---|---|
| Flight time | 0h 15m |
| Altitude | 2000 |
| Route | DCT |
| Aircraft | EC35/L-S/C |
Departure
| Time | 2026-04-28 18:29 |
|---|---|
| Airport | Kokotowie LPR HEMS Heliport (EPKX) |
Arrival
| Time | 2026-04-28 18:44 |
|---|---|
| Airport | Kokotowie LPR HEMS Heliport (EPKX) |
| Time | Latitude | Longitude | Altitude | Speed | Heading |
|---|---|---|---|---|---|
| 2026-04-28 18:28 | 50.05895 | 19.88975 | 1915 ft | 83 kts | 292° |
| 2026-04-28 18:29 | 50.06079 | 19.88140 | 1887 ft | 79 kts | 290° |
| 2026-04-28 18:29 | 50.06246 | 19.87330 | 1838 ft | 78 kts | 290° |
| 2026-04-28 18:29 | 50.06414 | 19.86528 | 1799 ft | 78 kts | 289° |
| 2026-04-28 18:29 | 50.06582 | 19.85738 | 1767 ft | 78 kts | 289° |
| 2026-04-28 18:30 | 50.06767 | 19.84912 | 1729 ft | 85 kts | 292° |
| 2026-04-28 18:30 | 50.06839 | 19.84611 | 1699 ft | 91 kts | 292° |
| 2026-04-28 18:30 | 50.07269 | 19.82942 | 1527 ft | 104 kts | 292° |
| 2026-04-28 18:30 | 50.07529 | 19.81897 | 1494 ft | 103 kts | 291° |
| 2026-04-28 18:31 | 50.07781 | 19.80842 | 1416 ft | 104 kts | 290° |
| 2026-04-28 18:31 | 50.07702 | 19.79843 | 1470 ft | 95 kts | 240° |
| 2026-04-28 18:31 | 50.07359 | 19.78980 | 1460 ft | 83 kts | 237° |
| 2026-04-28 18:31 | 50.07154 | 19.78253 | 1486 ft | 69 kts | 253° |
| 2026-04-28 18:32 | 50.07217 | 19.77451 | 1293 ft | 73 kts | 324° |
| 2026-04-28 18:32 | 50.07609 | 19.77054 | 1158 ft | 64 kts | 1° |
| 2026-04-28 18:32 | 50.07932 | 19.77224 | 1081 ft | 39 kts | 10° |
| 2026-04-28 18:32 | 50.08014 | 19.77400 | 842 ft | 14 kts | 355° |
| 2026-04-28 18:33 | 50.08056 | 19.77397 | 820 ft | 3 kts | 349° |
| 2026-04-28 18:33 | 50.08062 | 19.77391 | 796 ft | 0 kts | 346° |
| 2026-04-28 18:39 | 50.08073 | 19.77408 | 803 ft | 3 kts | 18° |
| 2026-04-28 18:39 | 50.08073 | 19.77511 | 866 ft | 27 kts | 80° |
| 2026-04-28 18:39 | 50.08104 | 19.78007 | 1112 ft | 64 kts | 81° |
| 2026-04-28 18:40 | 50.08143 | 19.78839 | 1291 ft | 89 kts | 81° |
| 2026-04-28 18:40 | 50.08173 | 19.79910 | 1333 ft | 106 kts | 83° |
| 2026-04-28 18:40 | 50.08194 | 19.80996 | 1700 ft | 91 kts | 83° |
| 2026-04-28 18:40 | 50.08237 | 19.81960 | 2047 ft | 88 kts | 79° |
| 2026-04-28 18:41 | 50.08265 | 19.82926 | 2301 ft | 98 kts | 83° |
| 2026-04-28 18:41 | 50.08310 | 19.84147 | 1747 ft | 136 kts | 77° |
| 2026-04-28 18:41 | 50.08468 | 19.85554 | 1462 ft | 119 kts | 72° |
| 2026-04-28 18:41 | 50.08578 | 19.86669 | 1488 ft | 100 kts | 84° |
| 2026-04-28 18:42 | 50.08553 | 19.87658 | 1445 ft | 84 kts | 83° |
| 2026-04-28 18:42 | 50.08608 | 19.88535 | 1347 ft | 79 kts | 76° |
| 2026-04-28 18:42 | 50.08697 | 19.89311 | 1338 ft | 71 kts | 78° |
| 2026-04-28 18:42 | 50.08789 | 19.90089 | 1244 ft | 73 kts | 78° |
| 2026-04-28 18:43 | 50.08856 | 19.90900 | 1182 ft | 77 kts | 80° |
| 2026-04-28 18:43 | 50.08887 | 19.91458 | 1124 ft | 78 kts | 78° |
| 2026-04-28 18:43 | 50.08938 | 19.92270 | 1116 ft | 71 kts | 73° |
| 2026-04-28 18:43 | 50.09001 | 19.92952 | 1060 ft | 55 kts | 70° |
| 2026-04-28 18:44 | 50.09062 | 19.93423 | 982 ft | 31 kts | 63° |
| 2026-04-28 18:44 | 50.09110 | 19.93618 | 820 ft | 7 kts | 83° |
| 2026-04-28 18:44 | 50.09108 | 19.93627 | 829 ft | 5 kts | 89° |
| 2026-04-28 18:45 | 50.09102 | 19.93645 | 829 ft | 3 kts | 91° |
| 2026-04-28 18:45 | 50.09107 | 19.93654 | 813 ft | 1 kts | 90° |
| 2026-04-28 18:45 | 50.09108 | 19.93651 | 806 ft | 0 kts | 89° |
| 2026-04-28 19:05 | 50.09100 | 19.93658 | 818 ft | 4 kts | 88° |
| 2026-04-28 19:05 | 50.09087 | 19.93666 | 897 ft | 12 kts | 250° |
| 2026-04-28 19:05 | 50.09040 | 19.93778 | 1073 ft | 7 kts | 253° |
| 2026-04-28 19:06 | 50.08980 | 19.93747 | 1173 ft | 26 kts | 175° |
| 2026-04-28 19:06 | 50.08803 | 19.93731 | 1306 ft | 51 kts | 159° |
| 2026-04-28 19:06 | 50.08122 | 19.94043 | 1581 ft | 100 kts | 139° |
| 2026-04-28 19:06 | 50.07458 | 19.94653 | 1673 ft | 111 kts | 131° |
| 2026-04-28 19:07 | 50.06907 | 19.95320 | 1988 ft | 93 kts | 123° |
| 2026-04-28 19:07 | 50.06433 | 19.96036 | 1973 ft | 103 kts | 125° |
| 2026-04-28 19:07 | 50.05954 | 19.96877 | 1979 ft | 102 kts | 124° |
| 2026-04-28 19:07 | 50.05494 | 19.97678 | 2022 ft | 98 kts | 123° |
| 2026-04-28 19:08 | 50.05055 | 19.98514 | 1951 ft | 103 kts | 120° |
| 2026-04-28 19:08 | 50.04610 | 19.99394 | 1895 ft | 103 kts | 121° |
| 2026-04-28 19:08 | 50.04150 | 20.00261 | 1791 ft | 106 kts | 122° |
| 2026-04-28 19:08 | 50.03723 | 20.01179 | 1743 ft | 99 kts | 116° |
| 2026-04-28 19:09 | 50.03400 | 20.02064 | 1796 ft | 89 kts | 109° |
| 2026-04-28 19:09 | 50.03198 | 20.02891 | 1857 ft | 77 kts | 94° |
| 2026-04-28 19:09 | 50.03056 | 20.03669 | 1805 ft | 73 kts | 98° |
| 2026-04-28 19:09 | 50.02885 | 20.04331 | 1597 ft | 61 kts | 98° |
| 2026-04-28 19:10 | 50.02731 | 20.04909 | 1397 ft | 54 kts | 98° |
| 2026-04-28 19:10 | 50.02593 | 20.05444 | 1255 ft | 51 kts | 96° |
| 2026-04-28 19:10 | 50.02482 | 20.05908 | 1063 ft | 42 kts | 93° |
| 2026-04-28 19:10 | 50.02378 | 20.06311 | 944 ft | 37 kts | 93° |
| 2026-04-28 19:11 | 50.02311 | 20.06624 | 846 ft | 21 kts | 89° |
| 2026-04-28 19:11 | 50.02276 | 20.06771 | 737 ft | 11 kts | 88° |
| 2026-04-28 19:11 | 50.02258 | 20.06850 | 701 ft | 4 kts | 89° |
| 2026-04-28 19:11 | 50.02248 | 20.06914 | 679 ft | 10 kts | 116° |
| 2026-04-28 19:12 | 50.02249 | 20.06983 | 660 ft | 1 kts | 154° |
| 2026-04-28 19:12 | 50.02238 | 20.06992 | 654 ft | 1 kts | 157° |
| 2026-04-28 19:12 | 50.02233 | 20.06998 | 654 ft | 1 kts | 158° |
| 2026-04-28 19:12 | 50.02224 | 20.07007 | 652 ft | 5 kts | 155° |
| 2026-04-28 19:13 | 50.02231 | 20.07001 | 651 ft | 0 kts | 156° |